Terminal Aerodrome Forecast
Issued by NWS North Platte, NE

Home | Current Version | Previous Version | Text Only | Print | Product List | Glossary Off
Versions: 1 2 3 4 5 6 7 8 9 10 11 12 13 14

000
FTUS43 KLBF 192331
TAFVTN
TAF
KVTN 192331Z 2000/2024 34005KT P6SM -RA OVC080
     FM200600 35006KT P6SM VCSH OVC080
     FM201200 VRB05KT P6SM OVC080=

USA.gov is the U.S. government's official web portal to all federal, state and local government web resources and services.